Time;durP1;ratioP1;P1;durP2;ratioP2;P2;SDS_P1;SDS_P2;PMS_P1;PMS_P2;Temp;Humidity;BMP_temperature;BMP_pressure;BME280_temperature;BME280_humidity;BME280_pressure;Samples;Min_cycle;Max_cycle;Signal;HPM_P1;HPM_P2
2023/07/10 00:02:41;;;;;;;15.30;3.10;;;30.80;41.80;;;;;;6142724;28;20039;-75
2023/07/10 00:05:41;;;;;;;12.00;3.58;;;30.80;42.00;;;;;;6124898;29;20819;-74
2023/07/10 00:08:43;;;;;;;9.40;3.20;;;30.80;42.20;;;;;;6102314;29;20032;-75
2023/07/10 00:11:46;;;;;;;5.97;3.05;;;30.70;42.20;;;;;;6118803;29;20036;-74
2023/07/10 00:14:46;;;;;;;11.00;3.95;;;30.70;42.40;;;;;;6118099;29;20063;-74
2023/07/10 00:17:50;;;;;;;7.00;2.97;;;30.70;42.50;;;;;;6101539;29;20032;-73
2023/07/10 00:20:51;;;;;;;13.25;4.00;;;30.80;42.50;;;;;;6118822;29;20671;-74
2023/07/10 00:23:52;;;;;;;10.35;3.90;;;30.80;42.30;;;;;;6118313;29;20036;-74
2023/07/10 00:26:53;;;;;;;9.75;3.72;;;30.80;42.30;;;;;;6118868;29;20058;-75
2023/07/10 00:29:55;;;;;;;5.45;3.28;;;30.80;42.40;;;;;;6119150;29;20038;-73
2023/07/10 00:32:56;;;;;;;10.88;3.60;;;30.80;42.60;;;;;;6118543;29;20032;-75
2023/07/10 00:35:57;;;;;;;7.35;3.65;;;30.80;42.90;;;;;;6118508;29;20114;-73
2023/07/10 00:39:28;;;;;;;6.55;2.95;;;30.80;43.10;;;;;;6117926;29;20111;-74
2023/07/10 00:42:29;;;;;;;6.55;3.22;;;30.70;43.30;;;;;;6102205;29;20074;-73
2023/07/10 00:45:30;;;;;;;9.98;3.35;;;30.70;43.60;;;;;;6118139;29;20074;-73
2023/07/10 00:48:45;;;;;;;8.43;3.75;;;30.60;43.80;;;;;;6118237;29;20032;-73
2023/07/10 00:51:55;;;;;;;14.30;3.47;;;30.50;44.00;;;;;;6117717;29;20035;-74
2023/07/10 00:54:59;;;;;;;8.98;4.03;;;30.50;44.60;;;;;;6102379;29;20139;-74
2023/07/10 00:58:24;;;;;;;7.18;3.15;;;30.40;44.70;;;;;;6118721;29;20137;-75
2023/07/10 01:01:26;;;;;;;9.63;3.67;;;30.30;45.00;;;;;;6118552;29;20036;-73
2023/07/10 01:04:27;;;;;;;9.18;3.90;;;30.30;45.20;;;;;;6118091;29;20027;-73
2023/07/10 01:07:37;;;;;;;6.50;3.53;;;30.30;45.40;;;;;;6118152;29;20061;-73
2023/07/10 01:10:38;;;;;;;10.70;4.20;;;30.20;45.50;;;;;;6103005;29;20031;-74
2023/07/10 01:13:42;;;;;;;8.35;3.55;;;30.20;45.60;;;;;;6117900;29;20483;-73
2023/07/10 01:16:44;;;;;;;9.20;3.88;;;30.10;45.70;;;;;;6119672;29;20036;-74
2023/07/10 01:19:46;;;;;;;8.60;3.40;;;30.00;45.80;;;;;;6117957;29;20042;-74
2023/07/10 01:22:48;;;;;;;8.15;3.70;;;30.00;45.70;;;;;;6119386;29;20028;-73
2023/07/10 01:25:58;;;;;;;9.60;4.30;;;30.00;45.60;;;;;;6102591;29;20130;-75
2023/07/10 01:29:00;;;;;;;9.57;3.55;;;30.00;45.40;;;;;;6121924;29;20032;-75
2023/07/10 01:32:02;;;;;;;6.32;3.35;;;30.00;45.30;;;;;;6121723;29;20027;-75
2023/07/10 01:35:06;;;;;;;5.47;3.25;;;29.90;45.40;;;;;;6123542;29;20035;-74
2023/07/10 01:38:12;;;;;;;8.50;3.55;;;29.80;45.40;;;;;;6122631;29;20097;-73
2023/07/10 01:41:36;;;;;;;15.40;3.40;;;29.70;45.50;;;;;;6133293;28;20035;-74
2023/07/10 01:44:40;;;;;;;8.48;3.50;;;29.70;45.80;;;;;;6146164;28;20134;-73
2023/07/10 01:47:41;;;;;;;8.73;3.22;;;29.80;45.80;;;;;;6145496;29;20074;-74
2023/07/10 01:50:44;;;;;;;11.32;3.63;;;29.90;45.50;;;;;;6129887;28;20086;-74
2023/07/10 01:53:48;;;;;;;6.10;3.20;;;29.90;45.30;;;;;;6126293;28;20428;-75
2023/07/10 01:56:48;;;;;;;8.35;3.47;;;29.90;45.20;;;;;;6105585;29;20451;-74
2023/07/10 01:59:50;;;;;;;5.32;3.03;;;29.90;45.00;;;;;;6121152;29;20039;-73
2023/07/10 02:02:51;;;;;;;8.30;3.80;;;29.90;44.90;;;;;;6105607;29;20047;-75
2023/07/10 02:05:52;;;;;;;10.52;3.58;;;29.90;44.80;;;;;;6121095;29;20047;-73
2023/07/10 02:08:53;;;;;;;5.57;3.22;;;29.90;44.70;;;;;;6121678;29;20034;-74
2023/07/10 02:11:55;;;;;;;11.82;4.28;;;29.80;44.70;;;;;;6121413;29;20024;-73
2023/07/10 02:14:56;;;;;;;5.93;3.22;;;29.70;44.80;;;;;;6121629;29;20448;-74
2023/07/10 02:17:57;;;;;;;14.35;3.97;;;29.70;44.90;;;;;;6122382;29;20040;-74
2023/07/10 02:20:58;;;;;;;7.25;3.95;;;29.60;45.00;;;;;;6121189;29;20039;-74
2023/07/10 02:23:59;;;;;;;8.45;3.50;;;29.60;45.00;;;;;;6121087;29;20102;-74
2023/07/10 02:27:00;;;;;;;14.43;3.80;;;29.50;45.10;;;;;;6120690;29;20163;-74
2023/07/10 02:30:03;;;;;;;12.60;3.70;;;29.50;45.50;;;;;;6105003;29;20114;-73
2023/07/10 02:33:05;;;;;;;12.07;4.05;;;29.30;45.00;;;;;;6120562;29;20035;-73
2023/07/10 02:36:06;;;;;;;19.35;3.92;;;29.40;45.30;;;;;;6121244;29;20129;-75
2023/07/10 02:39:07;;;;;;;9.77;3.92;;;29.30;45.20;;;;;;6120808;29;20207;-73
2023/07/10 02:42:10;;;;;;;10.20;3.75;;;29.30;45.20;;;;;;6120733;29;20379;-74
2023/07/10 02:45:11;;;;;;;12.32;3.65;;;29.30;45.20;;;;;;6120408;29;20035;-74
2023/07/10 02:48:13;;;;;;;9.38;3.90;;;29.30;45.20;;;;;;6120316;29;20138;-74
2023/07/10 02:51:14;;;;;;;16.42;4.22;;;29.20;45.30;;;;;;6135711;29;20032;-74
2023/07/10 02:54:15;;;;;;;7.57;3.20;;;29.10;45.30;;;;;;6104465;29;20448;-73
2023/07/10 02:57:16;;;;;;;8.15;3.65;;;29.10;45.40;;;;;;6119903;29;20043;-74
2023/07/10 03:00:17;;;;;;;12.90;3.25;;;29.00;45.40;;;;;;6119843;29;20133;-72
2023/07/10 03:03:18;;;;;;;9.15;3.80;;;29.00;45.50;;;;;;6134561;29;20118;-73
2023/07/10 03:06:20;;;;;;;10.35;3.45;;;29.00;45.50;;;;;;6120858;28;20142;-73
2023/07/10 03:09:21;;;;;;;8.77;3.60;;;29.00;45.50;;;;;;6120145;29;20040;-74
2023/07/10 03:12:23;;;;;;;8.55;3.88;;;29.00;45.50;;;;;;6121010;29;20027;-74
2023/07/10 03:15:24;;;;;;;11.93;4.10;;;28.90;45.70;;;;;;6121442;29;20495;-75
2023/07/10 03:18:25;;;;;;;6.90;3.83;;;28.90;45.90;;;;;;6119637;29;20039;-73
2023/07/10 03:21:26;;;;;;;11.52;3.33;;;28.30;45.70;;;;;;6120785;29;20027;-73
2023/07/10 03:24:27;;;;;;;7.95;3.58;;;28.80;46.10;;;;;;6119574;29;20028;-73
2023/07/10 03:27:29;;;;;;;9.02;3.67;;;28.80;46.10;;;;;;6119624;29;20411;-73
2023/07/10 03:30:34;;;;;;;6.50;3.75;;;28.80;46.20;;;;;;6119138;29;20118;-73
2023/07/10 03:33:35;;;;;;;11.35;3.97;;;28.70;46.20;;;;;;6128110;29;20027;-74
2023/07/10 03:36:37;;;;;;;12.43;3.70;;;28.70;46.30;;;;;;6123439;28;20297;-73
2023/07/10 03:39:38;;;;;;;13.25;4.13;;;28.70;46.30;;;;;;6119300;29;20213;-74
2023/07/10 03:42:39;;;;;;;9.95;3.80;;;28.70;46.40;;;;;;6120516;29;20103;-73
2023/07/10 03:45:41;;;;;;;8.48;4.03;;;28.70;46.50;;;;;;6118846;29;20032;-74
2023/07/10 03:48:43;;;;;;;5.85;3.10;;;28.60;46.50;;;;;;6118970;29;20035;-75
2023/07/10 03:51:44;;;;;;;9.27;3.85;;;28.60;46.50;;;;;;6120502;29;20372;-74
2023/07/10 03:54:45;;;;;;;9.43;3.72;;;28.50;46.60;;;;;;6119192;29;20055;-73
2023/07/10 03:57:46;;;;;;;7.50;3.08;;;28.60;46.60;;;;;;6118929;29;20046;-74
2023/07/10 04:00:50;;;;;;;9.00;3.63;;;28.50;46.50;;;;;;6120356;29;20456;-73
2023/07/10 04:03:51;;;;;;;8.05;4.00;;;28.50;47.20;;;;;;6117188;29;20040;-76
2023/07/10 04:06:54;;;;;;;8.00;3.17;;;28.40;46.50;;;;;;6119531;29;20061;-75
2023/07/10 04:09:56;;;;;;;9.73;4.28;;;28.40;46.60;;;;;;6119453;29;20032;-74
2023/07/10 04:12:59;;;;;;;5.80;3.30;;;28.40;46.70;;;;;;6118927;29;20032;-74
2023/07/10 04:16:21;;;;;;;8.73;3.65;;;28.30;46.80;;;;;;6119309;29;20035;-75
2023/07/10 04:19:21;;;;;;;16.83;3.55;;;28.30;47.00;;;;;;6103407;29;20391;-74
2023/07/10 04:22:22;;;;;;;5.90;2.90;;;28.30;47.00;;;;;;6118515;29;20127;-73
2023/07/10 04:25:23;;;;;;;8.25;3.35;;;28.30;47.20;;;;;;6118436;29;20639;-75
2023/07/10 04:28:26;;;;;;;9.20;3.85;;;28.30;47.20;;;;;;6119951;29;20036;-73
2023/07/10 04:31:29;;;;;;;10.32;3.55;;;28.30;47.30;;;;;;6124203;29;20038;-74
2023/07/10 04:34:32;;;;;;;9.95;4.28;;;28.40;47.40;;;;;;6142086;28;20031;-74
2023/07/10 04:37:33;;;;;;;7.78;3.03;;;28.60;47.40;;;;;;6142224;29;20031;-73
2023/07/10 04:40:35;;;;;;;9.38;3.25;;;28.50;47.30;;;;;;6142576;29;20153;-74
2023/07/10 04:43:36;;;;;;;11.23;3.83;;;28.50;47.40;;;;;;6143829;28;20039;-75
2023/07/10 04:46:38;;;;;;;18.13;3.28;;;28.50;47.40;;;;;;6143128;29;20031;-73
2023/07/10 04:49:39;;;;;;;6.97;3.65;;;28.50;47.50;;;;;;6142498;29;20028;-74
2023/07/10 04:52:40;;;;;;;13.32;3.80;;;28.40;47.70;;;;;;6132385;29;20075;-74
2023/07/10 04:55:41;;;;;;;8.85;3.50;;;28.50;47.80;;;;;;6119857;29;20808;-74
2023/07/10 04:58:50;;;;;;;15.75;3.45;;;28.60;47.80;;;;;;6118532;29;20055;-73
2023/07/10 05:01:51;;;;;;;10.05;3.92;;;28.70;47.80;;;;;;6119164;29;20081;-77
2023/07/10 05:04:52;;;;;;;10.85;4.03;;;28.70;47.70;;;;;;6119285;23;20036;-74
2023/07/10 05:07:53;;;;;;;12.02;4.07;;;28.60;47.60;;;;;;6083834;29;20036;-74
2023/07/10 05:10:55;;;;;;;8.75;3.65;;;28.50;47.60;;;;;;6099392;29;20036;-74
2023/07/10 05:13:56;;;;;;;11.63;4.22;;;28.50;47.60;;;;;;6088693;29;20319;-75
2023/07/10 05:16:57;;;;;;;7.15;4.18;;;28.50;47.60;;;;;;6078238;29;20036;-74
2023/07/10 05:19:57;;;;;;;6.85;4.05;;;28.50;47.50;;;;;;6095129;29;20064;-75
2023/07/10 05:22:58;;;;;;;7.53;3.80;;;28.50;47.50;;;;;;6084063;29;20481;-75
2023/07/10 05:26:04;;;;;;;11.25;3.80;;;28.50;47.50;;;;;;6083587;29;20028;-75
2023/07/10 05:29:05;;;;;;;13.38;4.15;;;28.50;47.90;;;;;;6098986;29;20024;-75
2023/07/10 05:32:07;;;;;;;10.55;4.03;;;28.50;48.00;;;;;;6099106;29;20039;-75
2023/07/10 05:35:08;;;;;;;9.30;4.10;;;28.50;48.00;;;;;;6098518;29;20127;-73
2023/07/10 05:38:09;;;;;;;9.75;4.38;;;28.60;48.00;;;;;;6098340;29;20044;-74
2023/07/10 05:41:10;;;;;;;6.80;3.63;;;28.70;47.70;;;;;;6097621;29;20055;-73
2023/07/10 05:44:11;;;;;;;14.90;4.18;;;28.70;47.50;;;;;;6098539;29;20091;-73
2023/07/10 05:47:12;;;;;;;10.65;4.13;;;28.80;47.40;;;;;;6097813;29;20039;-74
2023/07/10 05:50:13;;;;;;;8.10;3.92;;;28.80;47.20;;;;;;6097760;29;20206;-74
2023/07/10 05:53:16;;;;;;;13.75;4.13;;;28.80;47.00;;;;;;6098123;29;20043;-74
2023/07/10 05:56:18;;;;;;;13.05;4.75;;;28.80;47.00;;;;;;6098430;29;20032;-73
2023/07/10 05:59:18;;;;;;;10.70;3.65;;;28.90;46.90;;;;;;6099950;29;20103;-74
2023/07/10 06:02:19;;;;;;;7.18;3.85;;;28.90;46.80;;;;;;6099088;29;20110;-72
2023/07/10 06:05:20;;;;;;;17.27;5.07;;;28.90;46.80;;;;;;6097051;29;20047;-74
2023/07/10 06:08:22;;;;;;;14.77;4.38;;;29.10;46.80;;;;;;6096946;29;20055;-74
2023/07/10 06:11:23;;;;;;;15.18;4.32;;;29.00;46.70;;;;;;6097292;29;20064;-75
2023/07/10 06:14:24;;;;;;;12.23;4.18;;;28.90;46.60;;;;;;6112953;29;20147;-75
2023/07/10 06:17:25;;;;;;;12.38;4.50;;;29.00;46.60;;;;;;6081378;29;20039;-74
2023/07/10 06:20:26;;;;;;;10.88;4.30;;;29.10;46.50;;;;;;6081690;29;20038;-74
2023/07/10 06:23:29;;;;;;;15.07;4.50;;;29.10;46.40;;;;;;6113852;29;20087;-74
2023/07/10 06:26:30;;;;;;;13.38;4.25;;;29.20;46.40;;;;;;6122137;29;20040;-73
2023/07/10 06:29:36;;;;;;;15.52;4.10;;;29.20;46.40;;;;;;6120279;29;20119;-73
2023/07/10 06:32:37;;;;;;;10.45;5.05;;;29.30;46.50;;;;;;6120063;29;20035;-73
2023/07/10 06:35:38;;;;;;;15.27;4.65;;;29.30;46.60;;;;;;6092643;29;20043;-74
2023/07/10 06:38:39;;;;;;;10.75;3.95;;;29.30;46.50;;;;;;6098236;29;20032;-74
2023/07/10 06:41:40;;;;;;;11.98;4.22;;;29.40;46.50;;;;;;6097115;29;20034;-74
2023/07/10 06:44:46;;;;;;;14.27;4.20;;;29.50;46.50;;;;;;6096951;29;20028;-76
2023/07/10 06:47:47;;;;;;;10.23;3.75;;;29.60;46.30;;;;;;6098319;29;20455;-73
2023/07/10 06:50:53;;;;;;;10.70;3.88;;;29.80;46.30;;;;;;6096391;29;20032;-74
2023/07/10 06:53:54;;;;;;;8.95;3.53;;;29.90;46.00;;;;;;6096116;29;20032;-73
2023/07/10 06:56:55;;;;;;;11.18;3.42;;;30.00;45.80;;;;;;6096365;29;20046;-74
2023/07/10 06:59:56;;;;;;;15.43;4.15;;;30.20;45.80;;;;;;6112086;29;20054;-73
2023/07/10 07:02:58;;;;;;;13.57;3.78;;;30.30;45.70;;;;;;6096883;29;20051;-73
2023/07/10 07:05:59;;;;;;;11.38;4.68;;;30.40;45.90;;;;;;6095810;29;20338;-74
2023/07/10 07:08:59;;;;;;;13.40;3.42;;;30.50;45.80;;;;;;6095795;29;20524;-73
2023/07/10 07:12:01;;;;;;;12.05;4.30;;;30.60;45.80;;;;;;6095584;29;20047;-74
2023/07/10 07:15:02;;;;;;;22.67;4.85;;;30.70;45.60;;;;;;6103162;29;20071;-73
2023/07/10 07:18:04;;;;;;;18.55;4.47;;;30.90;45.30;;;;;;6082250;29;20122;-72
2023/07/10 07:21:05;;;;;;;9.82;3.63;;;31.00;45.40;;;;;;6103307;29;20040;-74
2023/07/10 07:24:06;;;;;;;8.38;3.55;;;31.00;45.50;;;;;;6096309;29;20040;-73
2023/07/10 07:27:07;;;;;;;10.07;3.70;;;31.00;45.70;;;;;;6079719;29;20032;-73
2023/07/10 07:30:09;;;;;;;9.55;4.10;;;31.00;45.70;;;;;;6095690;29;20067;-73
2023/07/10 07:33:10;;;;;;;10.10;4.00;;;30.90;45.80;;;;;;6095424;29;20485;-74
2023/07/10 07:36:12;;;;;;;14.20;4.07;;;31.00;45.90;;;;;;6111874;29;20040;-73
2023/07/10 07:39:15;;;;;;;10.18;3.85;;;31.00;45.70;;;;;;6118571;29;20036;-73
2023/07/10 07:42:16;;;;;;;7.75;3.45;;;31.20;45.70;;;;;;6117933;29;20035;-72
2023/07/10 07:45:17;;;;;;;13.82;4.07;;;31.30;45.40;;;;;;6119626;29;20111;-73
2023/07/10 07:48:19;;;;;;;11.23;3.78;;;31.40;45.20;;;;;;6118594;29;20444;-74
2023/07/10 07:51:20;;;;;;;9.65;3.95;;;31.50;45.10;;;;;;6133667;28;20110;-73
2023/07/10 07:54:22;;;;;;;9.88;3.70;;;31.60;45.10;;;;;;6095896;29;20071;-74
2023/07/10 07:57:23;;;;;;;15.73;3.58;;;31.70;45.00;;;;;;6094919;29;20488;-74
2023/07/10 08:00:24;;;;;;;12.68;3.50;;;31.80;44.70;;;;;;6078129;29;20054;-73
2023/07/10 08:03:26;;;;;;;7.28;3.83;;;31.90;44.70;;;;;;6109919;29;20381;-74
2023/07/10 08:06:30;;;;;;;5.70;3.42;;;31.90;44.70;;;;;;6095959;29;20181;-73
2023/07/10 08:09:31;;;;;;;12.38;3.90;;;32.00;44.70;;;;;;6095790;29;20484;-73
2023/07/10 08:12:32;;;;;;;11.65;3.83;;;32.10;44.60;;;;;;6094120;29;20043;-74
2023/07/10 08:15:33;;;;;;;12.07;3.88;;;32.10;44.30;;;;;;6094453;29;20039;-73
2023/07/10 08:18:35;;;;;;;8.95;3.58;;;32.20;44.30;;;;;;6096140;29;20106;-73
2023/07/10 08:21:36;;;;;;;13.23;4.50;;;32.30;44.10;;;;;;6095582;29;20032;-73
2023/07/10 08:24:37;;;;;;;13.02;3.95;;;32.40;44.00;;;;;;6093679;29;20066;-75
2023/07/10 08:27:38;;;;;;;12.38;4.53;;;32.50;43.90;;;;;;6077896;29;20040;-73
2023/07/10 08:30:39;;;;;;;10.25;4.38;;;32.60;43.80;;;;;;6093933;29;20127;-73
2023/07/10 08:33:40;;;;;;;18.15;4.18;;;32.70;43.80;;;;;;6077614;29;20119;-74
2023/07/10 08:36:41;;;;;;;6.20;3.65;;;32.70;43.70;;;;;;6094239;29;20039;-73
2023/07/10 08:39:42;;;;;;;7.32;3.78;;;32.80;43.70;;;;;;6114060;29;20476;-74
2023/07/10 08:42:43;;;;;;;6.90;3.58;;;32.90;43.40;;;;;;6098752;29;20076;-74
2023/07/10 08:45:46;;;;;;;10.52;3.83;;;32.90;43.30;;;;;;6113727;29;20048;-73
2023/07/10 08:49:01;;;;;;;8.90;4.13;;;33.00;43.40;;;;;;6098299;29;20079;-74
2023/07/10 08:52:11;;;;;;;7.20;3.75;;;33.10;43.20;;;;;;6100124;29;20024;-73
2023/07/10 08:55:16;;;;;;;11.73;3.67;;;33.10;43.20;;;;;;6098648;29;20057;-74
2023/07/10 08:58:27;;;;;;;8.35;4.57;;;33.20;43.20;;;;;;6098605;29;20077;-73
2023/07/10 09:01:37;;;;;;;7.82;3.67;;;33.20;43.20;;;;;;6097906;29;20055;-73
2023/07/10 09:04:39;;;;;;;13.43;4.35;;;33.40;43.10;;;;;;6098002;29;20116;-74
2023/07/10 09:07:44;;;;;;;18.25;3.80;;;33.40;42.90;;;;;;6097882;29;20505;-73
2023/07/10 09:10:50;;;;;;;8.70;3.88;;;33.60;42.70;;;;;;6088421;29;20512;-74
2023/07/10 09:13:56;;;;;;;10.57;3.58;;;33.60;42.50;;;;;;6105940;29;20376;-73
2023/07/10 09:16:59;;;;;;;11.30;3.45;;;33.60;42.40;;;;;;6123440;29;20062;-73
2023/07/10 09:20:04;;;;;;;11.25;4.28;;;33.50;42.30;;;;;;6121716;29;20044;-73
2023/07/10 09:23:22;;;;;;;8.02;4.05;;;33.50;42.40;;;;;;6107197;29;20076;-74
2023/07/10 09:26:39;;;;;;;6.43;4.13;;;33.50;42.50;;;;;;6083057;29;20074;-72
2023/07/10 09:29:43;;;;;;;6.50;4.30;;;33.50;42.50;;;;;;6082766;29;20032;-72
2023/07/10 09:32:43;;;;;;;7.25;4.50;;;33.50;42.50;;;;;;6099005;29;20039;-71
2023/07/10 09:35:47;;;;;;;9.82;4.55;;;33.60;42.50;;;;;;6113500;29;20059;-73
2023/07/10 09:38:51;;;;;;;10.18;4.20;;;33.70;43.10;;;;;;6098034;29;20088;-74
2023/07/10 09:41:52;;;;;;;7.72;4.40;;;33.80;42.20;;;;;;6097364;29;20052;-74
2023/07/10 09:44:55;;;;;;;11.18;3.85;;;33.90;41.90;;;;;;6113152;29;20051;-74
2023/07/10 09:47:56;;;;;;;15.00;4.07;;;33.90;41.70;;;;;;6096976;29;20112;-72
2023/07/10 09:51:05;;;;;;;8.40;4.22;;;33.90;41.80;;;;;;6096605;29;20343;-73
2023/07/10 09:54:14;;;;;;;11.57;3.90;;;33.90;41.80;;;;;;6097900;29;20032;-74
2023/07/10 09:57:17;;;;;;;10.00;4.43;;;33.90;41.90;;;;;;6098866;29;20067;-73
2023/07/10 10:00:19;;;;;;;9.60;4.05;;;34.00;41.70;;;;;;6112939;29;20043;-74
2023/07/10 10:03:32;;;;;;;8.93;4.57;;;34.00;41.60;;;;;;6098050;29;20035;-72
2023/07/10 10:06:33;;;;;;;14.88;6.03;;;34.00;41.80;;;;;;6078506;29;20039;-74
2023/07/10 10:09:35;;;;;;;12.70;5.78;;;34.00;41.50;;;;;;6104204;29;20130;-72
2023/07/10 10:12:37;;;;;;;8.23;5.35;;;34.00;41.60;;;;;;6121405;29;20035;-75
2023/07/10 10:16:02;;;;;;;7.57;4.60;;;34.00;41.70;;;;;;6120262;29;20130;-73
2023/07/10 10:19:24;;;;;;;11.55;5.22;;;34.00;41.70;;;;;;6119924;29;20030;-74
2023/07/10 10:22:28;;;;;;;10.38;5.10;;;34.00;41.70;;;;;;6089068;29;20117;-74
2023/07/10 10:25:44;;;;;;;10.18;4.15;;;34.10;41.50;;;;;;6088847;29;20064;-73
2023/07/10 10:28:56;;;;;;;11.82;4.50;;;34.10;41.50;;;;;;6074655;29;20064;-73
2023/07/10 10:32:12;;;;;;;6.25;4.38;;;34.10;41.50;;;;;;6074853;29;20033;-73
2023/07/10 10:35:20;;;;;;;10.10;4.30;;;34.20;41.50;;;;;;6097539;29;20256;-72
2023/07/10 10:38:46;;;;;;;13.57;4.50;;;34.30;41.30;;;;;;6112461;29;20082;-74
2023/07/10 10:41:56;;;;;;;15.50;5.00;;;34.30;41.10;;;;;;6098061;29;20272;-74
2023/07/10 10:45:11;;;;;;;11.73;5.20;;;34.40;40.80;;;;;;6098098;29;20032;-73
2023/07/10 10:48:27;;;;;;;12.05;4.30;;;34.40;40.80;;;;;;6096092;29;20107;-75
2023/07/10 10:51:39;;;;;;;7.53;4.15;;;34.50;40.80;;;;;;6096324;29;20028;-73
2023/07/10 10:54:57;;;;;;;12.00;4.80;;;34.70;40.80;;;;;;6096430;29;20084;-73
2023/07/10 10:58:18;;;;;;;9.60;4.40;;;34.90;40.40;;;;;;6097496;29;20422;-74
2023/07/10 11:01:39;;;;;;;9.35;4.20;;;34.90;40.10;;;;;;6094925;29;20092;-74
2023/07/10 11:04:47;;;;;;;11.82;4.13;;;34.60;39.80;;;;;;6104260;29;20035;-75
2023/07/10 11:07:53;;;;;;;11.18;4.70;;;34.80;39.80;;;;;;6096951;29;20039;-74
2023/07/10 11:10:56;;;;;;;14.85;3.97;;;35.10;39.70;;;;;;6096298;29;20063;-74
2023/07/10 11:13:59;;;;;;;13.50;4.85;;;35.80;38.60;;;;;;6111766;29;20724;-74
2023/07/10 11:17:01;;;;;;;15.80;4.50;;;36.60;37.60;;;;;;6111787;29;20043;-73
2023/07/10 11:20:04;;;;;;;5.88;4.13;;;37.10;35.90;;;;;;6095641;29;20091;-74
2023/07/10 11:23:05;;;;;;;7.82;3.88;;;38.00;34.90;;;;;;6071793;29;20972;-74
2023/07/10 11:26:18;;;;;;;9.38;3.78;;;38.30;34.10;;;;;;6073657;29;20037;-75
2023/07/10 11:29:41;;;;;;;13.27;4.10;;;38.50;33.40;;;;;;6088123;29;20032;-73
2023/07/10 11:33:14;;;;;;;7.38;4.38;;;38.70;33.10;;;;;;6088013;29;20044;-75
2023/07/10 11:36:34;;;;;;;7.05;3.63;;;38.90;32.70;;;;;;6090682;29;20032;-72
2023/07/10 11:39:40;;;;;;;9.13;3.90;;;39.10;32.30;;;;;;6094874;29;20160;-74
2023/07/10 11:42:41;;;;;;;11.38;3.95;;;39.20;31.90;;;;;;6094918;29;20055;-75
2023/07/10 11:45:50;;;;;;;8.38;4.15;;;39.40;31.70;;;;;;6110914;29;20510;-73
2023/07/10 11:49:15;;;;;;;6.28;4.13;;;40.00;31.30;;;;;;6096468;29;20122;-74
2023/07/10 11:52:16;;;;;;;10.18;4.15;;;40.40;30.30;;;;;;6079215;29;20043;-75
2023/07/10 11:55:25;;;;;;;8.10;3.40;;;40.50;30.10;;;;;;6110827;29;20036;-75
2023/07/10 11:58:33;;;;;;;7.35;4.20;;;40.80;30.10;;;;;;6095543;29;20043;-75
2023/07/10 12:01:34;;;;;;;12.95;4.55;;;41.10;29.60;;;;;;6117315;29;20087;-73
2023/07/10 12:04:36;;;;;;;10.80;3.47;;;41.40;29.40;;;;;;6109756;29;20154;-74
2023/07/10 12:07:37;;;;;;;7.30;3.72;;;41.80;29.10;;;;;;6095049;29;20115;-74
2023/07/10 12:10:47;;;;;;;8.75;4.10;;;41.90;28.90;;;;;;6078621;29;20484;-75
2023/07/10 12:13:48;;;;;;;11.90;4.10;;;41.70;28.80;;;;;;6110619;29;20116;-74
2023/07/10 12:16:54;;;;;;;10.93;4.00;;;41.30;29.20;;;;;;6096144;29;20066;-72
2023/07/10 12:19:54;;;;;;;11.93;4.32;;;41.20;29.60;;;;;;6094711;29;20048;-73
2023/07/10 12:23:03;;;;;;;7.45;4.25;;;41.40;29.60;;;;;;6086678;29;20040;-72
2023/07/10 12:26:16;;;;;;;8.80;4.10;;;41.60;29.40;;;;;;6071348;29;20190;-71
2023/07/10 12:29:17;;;;;;;10.63;3.92;;;41.60;29.10;;;;;;6055944;29;20104;-75
2023/07/10 12:32:19;;;;;;;10.70;4.13;;;41.80;29.00;;;;;;6055694;29;20111;-75
2023/07/10 12:35:29;;;;;;;8.82;4.20;;;41.90;28.80;;;;;;6083090;29;20109;-74
2023/07/10 12:38:32;;;;;;;9.10;4.00;;;42.10;28.70;;;;;;6094804;29;20115;-73
2023/07/10 12:41:47;;;;;;;15.85;4.32;;;42.40;28.50;;;;;;6094734;29;20052;-74
2023/07/10 12:44:49;;;;;;;10.07;4.03;;;42.60;28.00;;;;;;6110642;29;20040;-75
2023/07/10 12:47:56;;;;;;;12.48;3.95;;;42.70;28.00;;;;;;6094558;29;20046;-75
2023/07/10 12:51:04;;;;;;;9.88;3.85;;;42.80;27.60;;;;;;6094671;29;20084;-74
2023/07/10 12:54:23;;;;;;;15.25;4.38;;;42.90;27.50;;;;;;6095860;29;20066;-73
2023/07/10 12:57:29;;;;;;;4.30;3.70;;;42.90;27.20;;;;;;6093553;29;20040;-75
2023/07/10 13:00:45;;;;;;;11.32;3.97;;;42.80;27.20;;;;;;6093924;29;20130;-75
2023/07/10 13:04:15;;;;;;;15.13;4.53;;;42.40;27.30;;;;;;6093598;29;20050;-76
2023/07/10 13:07:21;;;;;;;8.00;3.67;;;42.30;27.40;;;;;;6094294;29;20040;-74
2023/07/10 13:10:50;;;;;;;9.85;3.83;;;42.30;27.30;;;;;;6095512;29;20335;-74
2023/07/10 13:13:52;;;;;;;11.77;4.15;;;42.40;27.10;;;;;;6093578;29;20460;-74
2023/07/10 13:16:54;;;;;;;12.07;3.63;;;42.50;26.80;;;;;;6095233;29;20036;-75
2023/07/10 13:19:55;;;;;;;12.15;3.72;;;43.00;26.40;;;;;;6109378;29;20051;-75
2023/07/10 13:22:59;;;;;;;10.05;3.72;;;43.40;25.90;;;;;;6093876;29;20040;-74
2023/07/10 13:26:06;;;;;;;10.18;3.78;;;43.50;25.70;;;;;;6099132;29;20767;-76
2023/07/10 13:29:13;;;;;;;13.23;3.97;;;43.50;25.60;;;;;;6098936;29;20106;-73
2023/07/10 13:32:16;;;;;;;8.38;3.50;;;43.30;25.80;;;;;;6114147;29;20036;-73
2023/07/10 13:35:18;;;;;;;9.07;4.10;;;43.50;25.70;;;;;;6123443;29;20027;-75
2023/07/10 13:38:19;;;;;;;9.95;3.47;;;43.60;25.40;;;;;;6121781;29;20082;-75
2023/07/10 13:41:24;;;;;;;9.27;3.53;;;43.70;25.30;;;;;;6121625;29;20031;-74
2023/07/10 13:44:25;;;;;;;12.43;3.90;;;43.90;25.00;;;;;;6121760;29;20047;-74
2023/07/10 13:47:27;;;;;;;12.52;3.90;;;44.20;24.80;;;;;;6121031;29;20346;-74
2023/07/10 13:50:28;;;;;;;11.23;3.75;;;44.40;24.40;;;;;;6083670;29;20122;-74
2023/07/10 13:53:30;;;;;;;15.23;3.90;;;44.30;24.40;;;;;;6098434;29;20024;-75
2023/07/10 13:56:38;;;;;;;13.68;3.15;;;44.30;24.50;;;;;;6099411;29;20064;-75
2023/07/10 13:59:39;;;;;;;12.57;4.00;;;44.30;24.40;;;;;;6097794;29;20139;-73
2023/07/10 14:02:43;;;;;;;16.83;4.10;;;44.20;24.70;;;;;;6096804;29;20040;-74
2023/07/10 14:05:47;;;;;;;13.93;3.42;;;44.30;24.60;;;;;;6091971;29;20047;-74
2023/07/10 14:08:50;;;;;;;11.90;3.85;;;44.60;24.50;;;;;;6113391;29;20032;-72
2023/07/10 14:11:51;;;;;;;7.80;3.03;;;45.10;24.00;;;;;;6113122;29;20449;-72
2023/07/10 14:14:52;;;;;;;11.88;3.45;;;45.50;23.50;;;;;;6096816;29;20037;-73
2023/07/10 14:17:53;;;;;;;10.10;3.22;;;45.70;23.30;;;;;;6098320;29;20032;-74
2023/07/10 14:20:57;;;;;;;10.30;3.67;;;45.80;23.00;;;;;;6096880;29;20487;-74
2023/07/10 14:23:58;;;;;;;5.25;3.13;;;45.70;23.00;;;;;;6097755;29;20079;-73
2023/07/10 14:26:58;;;;;;;9.90;3.20;;;45.90;23.20;;;;;;6081115;29;20092;-74
2023/07/10 14:30:00;;;;;;;9.68;3.47;;;46.10;23.00;;;;;;6098484;29;20063;-74
2023/07/10 14:33:02;;;;;;;7.85;3.90;;;46.00;22.80;;;;;;6112507;29;20024;-74
2023/07/10 14:36:15;;;;;;;8.48;3.58;;;45.90;22.70;;;;;;6111390;29;20031;-74
2023/07/10 14:39:16;;;;;;;12.90;3.53;;;45.50;22.90;;;;;;6135837;29;20143;-73
2023/07/10 14:42:19;;;;;;;13.45;3.83;;;45.20;23.10;;;;;;6121309;29;20035;-75
2023/07/10 14:45:20;;;;;;;10.98;3.88;;;45.00;23.10;;;;;;6092948;29;20052;-73
2023/07/10 14:48:25;;;;;;;12.70;3.90;;;44.70;23.30;;;;;;6103289;29;20055;-75
2023/07/10 14:51:26;;;;;;;12.55;3.50;;;44.70;23.40;;;;;;6119921;29;20114;-74
2023/07/10 14:54:27;;;;;;;15.77;3.40;;;44.80;23.80;;;;;;6121930;29;20364;-72
2023/07/10 14:57:36;;;;;;;12.30;3.72;;;45.00;23.10;;;;;;6119989;29;20103;-73
2023/07/10 15:00:37;;;;;;;10.98;3.33;;;44.90;23.30;;;;;;6104154;29;20032;-72
2023/07/10 15:03:39;;;;;;;11.90;3.10;;;44.90;23.40;;;;;;6118838;29;20102;-73
2023/07/10 15:06:42;;;;;;;11.05;3.22;;;45.00;23.20;;;;;;6080201;29;20047;-73
2023/07/10 15:09:43;;;;;;;10.05;3.28;;;45.00;23.10;;;;;;6112103;29;20123;-73
2023/07/10 15:12:44;;;;;;;10.15;3.45;;;44.90;23.00;;;;;;6095279;29;20070;-72
2023/07/10 15:15:46;;;;;;;7.47;3.55;;;45.20;22.70;;;;;;6111366;29;20040;-73
2023/07/10 15:18:48;;;;;;;11.45;3.42;;;45.30;22.60;;;;;;6095407;29;20104;-72
2023/07/10 15:21:49;;;;;;;10.05;3.40;;;45.20;22.80;;;;;;6079307;29;20047;-73
2023/07/10 15:24:50;;;;;;;9.10;4.05;;;44.90;23.10;;;;;;6080106;29;20454;-71
2023/07/10 15:27:53;;;;;;;9.02;3.85;;;44.60;23.40;;;;;;6111201;29;20084;-73
2023/07/10 15:30:59;;;;;;;7.50;3.35;;;44.60;23.50;;;;;;6079475;29;20044;-72
2023/07/10 15:34:00;;;;;;;5.40;3.33;;;44.80;23.80;;;;;;6111180;29;20063;-72
2023/07/10 15:37:02;;;;;;;14.27;3.95;;;44.90;23.50;;;;;;6096152;29;20122;-71
2023/07/10 15:40:21;;;;;;;6.80;3.10;;;44.90;23.70;;;;;;6096696;29;20123;-72
2023/07/10 15:43:34;;;;;;;5.68;3.20;;;44.80;24.00;;;;;;6087500;29;20358;-72
2023/07/10 15:46:36;;;;;;;5.65;3.28;;;44.60;24.10;;;;;;6109427;29;20480;-72
2023/07/10 15:49:39;;;;;;;9.25;4.05;;;44.80;24.20;;;;;;6096833;29;20441;-73
2023/07/10 15:52:51;;;;;;;7.05;3.35;;;45.00;24.00;;;;;;6095259;29;20028;-72